Time;durP1;ratioP1;P1;durP2;ratioP2;P2;SDS_P1;SDS_P2;PMS_P1;PMS_P2;Temp;Humidity;BMP_temperature;BMP_pressure;BME280_temperature;BME280_humidity;BME280_pressure;Samples;Min_cycle;Max_cycle;Signal;HPM_P1;HPM_P2
2022/08/22 00:01:40;;;;;;;2.53;1.45;;;17.50;99.90;;;;;;4669994;28;10000637;-74
2022/08/22 00:04:13;;;;;;;1.77;1.42;;;17.50;99.90;;;;;;5018987;28;20025;-74
2022/08/22 00:06:57;;;;;;;2.95;1.40;;;17.40;99.90;;;;;;5019052;28;20030;-74
2022/08/22 00:09:44;;;;;;;2.65;1.55;;;17.40;99.90;;;;;;5023350;28;20010;-74
2022/08/22 00:12:31;;;;;;;3.15;1.50;;;17.40;99.90;;;;;;5019551;28;20033;-74
2022/08/22 00:15:10;;;;;;;2.95;1.83;;;17.30;99.90;;;;;;5008617;28;20044;-74
2022/08/22 00:17:54;;;;;;;3.70;2.00;;;17.30;99.90;;;;;;5012502;28;20025;-74
2022/08/22 00:20:34;;;;;;;1.63;1.50;;;17.20;99.90;;;;;;5020045;28;20029;-74
2022/08/22 00:23:18;;;;;;;3.42;1.58;;;17.10;99.90;;;;;;5013225;28;20112;-74
2022/08/22 00:25:52;;;;;;;2.28;1.70;;;17.10;99.90;;;;;;5008408;28;20611;-74
2022/08/22 00:28:26;;;;;;;6.22;1.70;;;17.00;99.90;;;;;;5016527;28;20040;-74
2022/08/22 00:31:01;;;;;;;2.47;1.48;;;17.00;99.90;;;;;;5012002;28;20500;-74
2022/08/22 00:33:51;;;;;;;3.05;1.75;;;16.90;99.90;;;;;;5006801;28;20042;-74
2022/08/22 00:36:28;;;;;;;3.72;1.52;;;16.80;99.90;;;;;;5010812;28;20664;-74
2022/08/22 00:39:15;;;;;;;2.55;1.70;;;16.80;99.90;;;;;;5022269;28;20026;-74
2022/08/22 00:41:53;;;;;;;6.80;2.25;;;16.80;99.90;;;;;;5021298;28;20503;-74
2022/08/22 00:44:56;;;;;;;2.70;1.70;;;16.80;99.90;;;;;;5021416;28;20056;-74
2022/08/22 00:47:45;;;;;;;2.73;1.87;;;16.70;99.90;;;;;;5025346;28;20416;-74
2022/08/22 00:50:38;;;;;;;3.70;1.80;;;16.60;99.90;;;;;;4991762;28;20385;-74
2022/08/22 00:53:35;;;;;;;2.47;1.50;;;16.50;99.90;;;;;;5020386;28;20021;-74
2022/08/22 00:56:41;;;;;;;2.10;1.60;;;16.40;99.90;;;;;;5018514;28;20051;-74
2022/08/22 00:59:12;;;;;;;4.28;1.80;;;16.40;99.90;;;;;;4924933;29;20131;-74
2022/08/22 01:01:57;;;;;;;2.53;1.40;;;16.40;99.90;;;;;;4924936;29;20038;-74
2022/08/22 01:04:49;;;;;;;2.30;1.60;;;16.30;99.90;;;;;;4985857;28;20045;-74
2022/08/22 01:07:40;;;;;;;2.78;1.77;;;16.30;99.90;;;;;;5019340;28;20137;-74
2022/08/22 01:10:21;;;;;;;2.65;1.50;;;16.30;99.90;;;;;;5016521;28;20036;-74
2022/08/22 01:13:16;;;;;;;1.75;1.50;;;16.30;99.90;;;;;;5016057;28;20370;-74
2022/08/22 01:15:43;;;;;;;1.70;1.60;;;16.20;99.90;;;;;;5022591;28;20927;-74
2022/08/22 01:18:22;;;;;;;2.55;1.80;;;16.20;99.90;;;;;;5023944;28;20028;-74
2022/08/22 01:21:26;;;;;;;2.42;1.70;;;16.20;99.90;;;;;;5016254;28;20550;-74
2022/08/22 01:25:16;;;;;;;1.83;1.40;;;16.20;99.90;;;;;;5007093;28;20030;-74
2022/08/22 01:28:06;;;;;;;2.63;1.73;;;16.10;99.90;;;;;;4958376;28;20039;-74
2022/08/22 01:31:06;;;;;;;1.73;1.42;;;16.10;99.90;;;;;;4982637;28;20037;-74
2022/08/22 01:34:09;;;;;;;2.65;1.80;;;16.00;99.90;;;;;;5011730;28;20904;-74
2022/08/22 01:37:00;;;;;;;2.78;1.98;;;16.00;99.90;;;;;;5020774;28;20029;-74
2022/08/22 01:40:07;;;;;;;2.58;1.70;;;15.90;99.90;;;;;;5022392;28;20044;-74
2022/08/22 01:42:50;;;;;;;3.35;2.00;;;15.90;99.90;;;;;;4994946;28;20025;-77
2022/08/22 01:46:00;;;;;;;5.45;2.03;;;16.00;99.90;;;;;;5017980;28;20064;-76
2022/08/22 01:48:48;;;;;;;4.13;2.08;;;15.90;99.90;;;;;;4983303;28;20036;-74
2022/08/22 01:51:20;;;;;;;5.30;2.70;;;15.90;99.90;;;;;;5017449;28;20030;-74
2022/08/22 01:54:08;;;;;;;3.40;1.90;;;15.80;99.90;;;;;;5020633;28;20246;-74
2022/08/22 01:56:42;;;;;;;4.55;2.05;;;15.70;99.90;;;;;;5017239;28;20025;-74
2022/08/22 01:59:13;;;;;;;2.30;1.85;;;15.60;99.90;;;;;;5017289;28;20063;-74
2022/08/22 02:01:48;;;;;;;3.03;2.00;;;15.60;99.90;;;;;;5017552;28;20041;-74
2022/08/22 02:04:35;;;;;;;3.72;2.35;;;15.60;99.90;;;;;;5014174;28;20025;-74
2022/08/22 02:07:13;;;;;;;3.45;2.40;;;15.60;99.90;;;;;;5013636;28;20030;-74
2022/08/22 02:10:06;;;;;;;4.22;2.10;;;15.70;99.90;;;;;;5020443;28;20088;-74
2022/08/22 02:12:40;;;;;;;3.35;1.98;;;15.60;99.90;;;;;;5020177;28;20387;-74
2022/08/22 02:15:26;;;;;;;2.65;2.10;;;15.50;99.90;;;;;;5019850;28;20029;-74
2022/08/22 02:17:55;;;;;;;3.15;2.00;;;15.50;99.90;;;;;;5019018;28;20373;-74
2022/08/22 02:20:38;;;;;;;2.90;1.95;;;15.50;99.90;;;;;;5020958;28;20401;-76
2022/08/22 02:23:43;;;;;;;3.05;2.25;;;15.40;99.90;;;;;;5018651;28;20532;-76
2022/08/22 02:26:44;;;;;;;2.78;2.00;;;15.40;99.90;;;;;;5024232;28;20485;-76
2022/08/22 02:29:17;;;;;;;2.85;1.90;;;15.30;99.90;;;;;;5011660;28;20175;-76
2022/08/22 02:31:59;;;;;;;3.10;2.15;;;15.30;99.90;;;;;;5018023;28;20556;-76
2022/08/22 02:34:38;;;;;;;4.90;2.60;;;15.30;99.90;;;;;;5017747;28;20426;-76
2022/08/22 02:37:07;;;;;;;2.80;2.22;;;15.20;99.90;;;;;;5013534;28;20029;-76
2022/08/22 02:39:42;;;;;;;3.92;2.33;;;15.20;99.90;;;;;;5013270;28;20152;-76
2022/08/22 02:42:33;;;;;;;3.67;2.47;;;15.20;99.90;;;;;;5018157;28;20041;-74
2022/08/22 02:45:10;;;;;;;2.50;2.17;;;15.10;99.90;;;;;;5028518;28;20029;-77
2022/08/22 02:47:58;;;;;;;3.22;1.98;;;15.10;99.90;;;;;;5015466;28;20490;-77
2022/08/22 02:50:23;;;;;;;3.33;2.10;;;15.10;99.90;;;;;;5014320;28;20473;-74
2022/08/22 02:53:08;;;;;;;2.67;2.03;;;15.10;99.90;;;;;;5017807;28;20073;-74
2022/08/22 02:55:45;;;;;;;3.65;2.15;;;15.10;99.90;;;;;;5020523;28;20029;-74
2022/08/22 02:58:33;;;;;;;3.80;2.13;;;15.10;99.90;;;;;;5015650;28;20076;-74
2022/08/22 03:01:01;;;;;;;6.05;2.60;;;15.10;99.90;;;;;;5014775;28;20065;-77
2022/08/22 03:03:34;;;;;;;5.22;2.50;;;15.10;99.90;;;;;;5017350;28;20025;-77
2022/08/22 03:06:38;;;;;;;4.00;2.35;;;15.10;99.90;;;;;;5025379;28;20038;-76
2022/08/22 03:09:13;;;;;;;2.35;2.10;;;14.90;99.90;;;;;;5020636;28;20175;-74
2022/08/22 03:11:44;;;;;;;2.15;1.80;;;14.90;99.90;;;;;;5023357;28;20036;-74
2022/08/22 03:14:39;;;;;;;2.65;1.80;;;14.90;99.90;;;;;;5014085;28;20350;-77
2022/08/22 03:17:15;;;;;;;2.58;2.25;;;14.90;99.90;;;;;;5004219;28;20335;-77
2022/08/22 03:20:03;;;;;;;2.78;2.20;;;14.90;99.90;;;;;;5013924;28;20021;-77
2022/08/22 03:22:37;;;;;;;3.65;2.25;;;14.80;99.90;;;;;;5024149;28;20025;-75
2022/08/22 03:25:25;;;;;;;2.63;1.88;;;14.80;99.90;;;;;;5014058;28;20077;-75
2022/08/22 03:28:12;;;;;;;3.92;2.55;;;14.80;99.90;;;;;;5010739;28;20026;-74
2022/08/22 03:30:59;;;;;;;4.45;2.53;;;14.80;99.90;;;;;;5021749;28;20548;-77
2022/08/22 03:33:28;;;;;;;4.53;2.90;;;14.80;99.90;;;;;;5028123;28;20064;-76
2022/08/22 03:36:16;;;;;;;3.45;2.72;;;14.90;99.90;;;;;;5026396;28;20018;-76
2022/08/22 03:38:52;;;;;;;3.05;2.45;;;15.00;99.90;;;;;;5002580;28;20474;-76
2022/08/22 03:41:37;;;;;;;4.07;2.42;;;15.10;99.90;;;;;;5007835;28;20038;-76
2022/08/22 03:44:20;;;;;;;2.97;2.40;;;15.10;99.90;;;;;;5026014;28;20250;-76
2022/08/22 03:47:07;;;;;;;3.72;2.55;;;15.00;99.90;;;;;;5012331;28;20383;-77
2022/08/22 03:49:48;;;;;;;4.28;2.80;;;14.90;99.90;;;;;;5010827;28;20030;-76
2022/08/22 03:52:34;;;;;;;4.80;2.88;;;15.00;99.90;;;;;;5016834;28;20159;-76
2022/08/22 03:55:22;;;;;;;5.28;2.78;;;15.00;99.90;;;;;;5004225;28;20038;-76
2022/08/22 03:57:59;;;;;;;5.47;2.53;;;14.90;99.90;;;;;;5014366;28;20484;-76
2022/08/22 04:00:30;;;;;;;4.03;2.70;;;14.70;99.90;;;;;;5014620;28;20125;-76
2022/08/22 04:03:13;;;;;;;4.45;2.42;;;14.70;99.90;;;;;;5026239;28;20028;-76
2022/08/22 04:05:58;;;;;;;3.13;2.55;;;14.60;99.90;;;;;;5024004;28;20031;-76
2022/08/22 04:08:39;;;;;;;3.28;2.45;;;14.50;99.90;;;;;;5009479;28;20118;-76
2022/08/22 04:11:43;;;;;;;4.65;3.20;;;14.50;99.90;;;;;;5007128;28;20030;-76
2022/08/22 04:14:24;;;;;;;;;;;14.40;99.90;;;;;;5011221;28;20028;-76
2022/08/22 04:17:34;;;;;;;3.00;2.47;;;14.30;99.90;;;;;;5023443;28;20365;-76
2022/08/22 04:20:28;;;;;;;3.80;2.80;;;14.30;99.90;;;;;;5017966;28;20023;-76
2022/08/22 04:23:23;;;;;;;5.75;2.97;;;14.30;99.90;;;;;;5007852;28;20510;-76
2022/08/22 04:25:57;;;;;;;2.92;2.55;;;14.20;99.90;;;;;;5008678;28;20477;-76
2022/08/22 04:28:34;;;;;;;3.00;2.50;;;14.10;99.90;;;;;;5019175;28;20026;-76
2022/08/22 04:31:16;;;;;;;3.45;2.47;;;14.20;99.90;;;;;;5025331;28;20029;-76
2022/08/22 04:33:59;;;;;;;2.83;2.45;;;14.10;99.90;;;;;;5016463;28;20030;-76
2022/08/22 04:36:31;;;;;;;3.85;2.60;;;14.20;99.90;;;;;;5008366;28;20091;-76
2022/08/22 04:38:57;;;;;;;4.65;3.10;;;14.20;99.90;;;;;;5015701;28;20104;-76
2022/08/22 04:41:41;;;;;;;6.03;3.78;;;14.20;99.90;;;;;;5006653;28;20474;-76
2022/08/22 04:44:14;;;;;;;4.85;3.30;;;14.30;99.90;;;;;;5017331;28;20033;-76
2022/08/22 04:46:45;;;;;;;4.75;3.60;;;14.20;99.90;;;;;;5008607;28;20029;-76
2022/08/22 04:49:37;;;;;;;4.85;3.17;;;14.20;99.90;;;;;;5013798;28;20045;-76
2022/08/22 04:52:09;;;;;;;4.53;3.05;;;14.20;99.90;;;;;;5012143;28;20046;-76
2022/08/22 04:54:58;;;;;;;4.07;3.20;;;14.10;99.90;;;;;;5012006;28;20033;-76
2022/08/22 04:57:35;;;;;;;6.72;2.97;;;14.20;99.90;;;;;;5008128;28;20029;-76
2022/08/22 05:00:05;;;;;;;6.15;3.30;;;14.30;99.90;;;;;;5018380;28;20520;-76
2022/08/22 05:02:36;;;;;;;3.45;2.70;;;14.40;99.90;;;;;;5019888;28;20056;-76
2022/08/22 05:05:13;;;;;;;4.18;2.63;;;14.40;99.90;;;;;;5018919;28;20036;-76
2022/08/22 05:07:45;;;;;;;4.88;2.95;;;14.50;99.90;;;;;;5022605;28;20316;-76
2022/08/22 05:10:31;;;;;;;5.57;3.90;;;14.50;99.90;;;;;;5018097;28;20034;-77
2022/08/22 05:13:02;;;;;;;5.22;3.50;;;14.50;99.90;;;;;;4996847;28;20382;-77
2022/08/22 05:15:42;;;;;;;5.57;3.60;;;14.50;99.90;;;;;;5018537;28;20108;-76
2022/08/22 05:18:33;;;;;;;4.50;3.67;;;14.40;99.90;;;;;;5023048;28;20064;-77
2022/08/22 05:21:02;;;;;;;6.20;3.80;;;14.40;99.90;;;;;;5023765;28;20017;-77
2022/08/22 05:23:36;;;;;;;5.72;3.40;;;14.40;99.90;;;;;;5025330;28;20041;-77
2022/08/22 05:26:04;;;;;;;5.13;3.95;;;14.50;99.90;;;;;;5019464;28;20091;-77
2022/08/22 05:28:36;;;;;;;4.30;3.38;;;14.50;99.90;;;;;;5029196;28;20120;-77
2022/08/22 05:31:09;;;;;;;4.53;3.10;;;14.50;99.90;;;;;;5018406;28;20432;-77
2022/08/22 05:33:40;;;;;;;5.50;3.17;;;14.50;99.90;;;;;;5020978;28;20030;-77
2022/08/22 05:36:19;;;;;;;4.53;2.95;;;14.50;99.90;;;;;;5021536;28;20090;-77
2022/08/22 05:39:09;;;;;;;4.85;3.15;;;14.50;99.90;;;;;;5023178;28;20080;-77
2022/08/22 05:41:37;;;;;;;4.30;2.83;;;14.50;99.90;;;;;;5016590;28;20079;-77
2022/08/22 05:44:12;;;;;;;5.65;3.00;;;14.50;99.90;;;;;;5017656;28;20402;-77
2022/08/22 05:46:42;;;;;;;3.58;2.50;;;14.60;99.90;;;;;;5011000;28;20506;-77
2022/08/22 05:49:24;;;;;;;4.88;3.10;;;14.60;99.90;;;;;;5010940;28;20375;-77
2022/08/22 05:52:10;;;;;;;4.20;3.38;;;14.70;99.90;;;;;;5015881;28;20318;-77
2022/08/22 05:54:52;;;;;;;7.07;3.67;;;14.80;99.90;;;;;;5014812;28;20041;-76
2022/08/22 05:57:36;;;;;;;6.18;3.33;;;15.00;99.90;;;;;;5019946;28;20045;-77
2022/08/22 06:00:10;;;;;;;3.80;3.00;;;15.10;99.90;;;;;;5019415;28;20452;-77
2022/08/22 06:02:58;;;;;;;4.35;3.03;;;15.20;99.90;;;;;;5011778;28;20029;-76
2022/08/22 06:05:28;;;;;;;3.72;2.85;;;15.20;99.90;;;;;;5003399;28;20033;-77
2022/08/22 06:08:23;;;;;;;6.03;2.88;;;15.20;99.90;;;;;;5018013;28;20025;-77
2022/08/22 06:10:56;;;;;;;5.47;2.88;;;15.20;99.90;;;;;;5015120;28;20087;-77
2022/08/22 06:13:24;;;;;;;6.22;3.28;;;15.20;99.90;;;;;;5021119;28;20057;-77
2022/08/22 06:16:29;;;;;;;4.20;2.80;;;15.30;99.90;;;;;;5011707;28;20525;-77
2022/08/22 06:18:56;;;;;;;5.05;3.47;;;15.30;99.90;;;;;;5021439;28;20021;-77
2022/08/22 06:21:37;;;;;;;5.00;3.50;;;15.40;99.90;;;;;;5015768;28;20112;-77
2022/08/22 06:24:11;;;;;;;4.45;3.38;;;15.50;99.90;;;;;;5019338;28;20259;-77
2022/08/22 06:26:42;;;;;;;6.50;3.28;;;15.60;99.90;;;;;;5019865;28;20035;-77
2022/08/22 06:29:09;;;;;;;5.45;3.40;;;15.60;99.90;;;;;;5015225;28;20466;-77
2022/08/22 06:31:42;;;;;;;10.38;3.95;;;15.70;99.90;;;;;;5022223;28;20649;-77
2022/08/22 06:34:21;;;;;;;8.82;3.60;;;15.80;99.90;;;;;;5011776;28;20033;-75
2022/08/22 06:36:49;;;;;;;7.55;3.78;;;15.90;99.90;;;;;;5004107;28;20030;-75
2022/08/22 06:39:28;;;;;;;5.30;3.38;;;16.00;99.90;;;;;;5006758;28;20065;-75
2022/08/22 06:42:12;;;;;;;5.15;3.40;;;16.10;99.90;;;;;;5004972;28;20026;-75
2022/08/22 06:44:43;;;;;;;6.00;3.30;;;16.20;99.90;;;;;;5006428;28;20033;-75
2022/08/22 06:47:15;;;;;;;3.92;3.30;;;16.30;99.90;;;;;;5005842;28;20398;-75
2022/08/22 06:49:43;;;;;;;5.60;3.47;;;16.40;99.90;;;;;;5006914;28;20038;-76
2022/08/22 06:52:16;;;;;;;5.60;3.40;;;16.60;99.90;;;;;;5004663;28;20403;-75
2022/08/22 06:54:46;;;;;;;4.22;3.40;;;16.70;99.90;;;;;;5012705;28;20088;-75
2022/08/22 06:57:30;;;;;;;4.10;3.33;;;16.80;99.90;;;;;;5006191;28;20045;-75
2022/08/22 07:00:00;;;;;;;7.07;3.85;;;17.10;99.90;;;;;;5010147;28;20042;-75
2022/08/22 07:02:50;;;;;;;5.47;3.60;;;17.30;99.90;;;;;;5006414;28;20410;-75
2022/08/22 07:05:19;;;;;;;7.93;4.03;;;17.50;99.90;;;;;;5009608;28;20022;-75
2022/08/22 07:07:45;;;;;;;8.30;2.97;;;17.80;99.90;;;;;;5010070;28;20080;-75
2022/08/22 07:10:16;;;;;;;8.27;3.30;;;18.00;99.90;;;;;;5010729;28;20547;-76
2022/08/22 07:12:49;;;;;;;8.45;3.67;;;18.20;99.90;;;;;;5015862;28;20017;-75
2022/08/22 07:15:38;;;;;;;5.47;3.67;;;18.20;99.90;;;;;;5029559;28;20084;-75
2022/08/22 07:18:16;;;;;;;7.68;3.92;;;18.30;99.90;;;;;;5025344;28;20029;-75
2022/08/22 07:20:48;;;;;;;8.20;3.45;;;18.50;99.90;;;;;;5022909;28;20017;-75
2022/08/22 07:23:24;;;;;;;6.85;3.50;;;18.70;99.90;;;;;;5017897;28;20112;-76
2022/08/22 07:25:58;;;;;;;6.13;3.67;;;18.90;99.90;;;;;;4674937;28;10000415;-75
2022/08/22 07:28:44;;;;;;;5.93;3.30;;;19.10;99.90;;;;;;5010317;28;20088;-75
2022/08/22 07:31:25;;;;;;;4.47;2.90;;;19.30;99.90;;;;;;5017282;28;20051;-75
2022/08/22 07:33:54;;;;;;;6.18;3.38;;;19.40;99.90;;;;;;5013366;28;20144;-75
2022/08/22 07:36:30;;;;;;;5.68;3.30;;;19.50;99.90;;;;;;5012156;28;20359;-74
2022/08/22 07:39:02;;;;;;;5.45;3.38;;;19.60;99.90;;;;;;5005541;28;20331;-75
2022/08/22 07:41:42;;;;;;;7.75;3.28;;;19.80;99.90;;;;;;5024353;28;20116;-75
2022/08/22 07:44:25;;;;;;;6.93;3.35;;;19.90;99.90;;;;;;5012059;28;20032;-75
2022/08/22 07:47:15;;;;;;;7.00;3.75;;;20.00;99.90;;;;;;5010756;28;20156;-75
2022/08/22 07:49:55;;;;;;;8.18;3.58;;;20.20;99.90;;;;;;5006758;28;20038;-74
2022/08/22 07:52:22;;;;;;;8.50;3.80;;;20.30;99.90;;;;;;5023254;28;20120;-75
2022/08/22 07:54:53;;;;;;;9.27;3.60;;;20.50;99.90;;;;;;5025570;28;20076;-74
2022/08/22 07:57:26;;;;;;;6.28;3.85;;;20.70;99.90;;;;;;5022729;28;20112;-75
2022/08/22 07:59:55;;;;;;;4.43;3.35;;;20.80;99.90;;;;;;5014910;28;20152;-75
2022/08/22 08:02:23;;;;;;;4.35;2.97;;;20.90;99.90;;;;;;5005247;28;20038;-75
2022/08/22 08:04:51;;;;;;;4.80;3.03;;;21.00;99.90;;;;;;5006381;28;20033;-75
2022/08/22 08:07:21;;;;;;;6.20;2.88;;;21.10;99.90;;;;;;5023339;28;20030;-75
2022/08/22 08:10:09;;;;;;;5.85;2.60;;;21.30;99.90;;;;;;5015716;28;20034;-75
2022/08/22 08:12:39;;;;;;;8.32;3.40;;;21.50;99.90;;;;;;5017495;28;20033;-75
2022/08/22 08:15:10;;;;;;;8.50;3.28;;;21.50;99.90;;;;;;5016792;28;20554;-75
2022/08/22 08:17:37;;;;;;;5.30;2.80;;;21.60;99.90;;;;;;5007432;28;20030;-75
2022/08/22 08:20:10;;;;;;;5.15;3.03;;;21.70;99.90;;;;;;5014294;28;20314;-75
2022/08/22 08:22:39;;;;;;;5.38;2.88;;;21.80;99.90;;;;;;5020599;28;20033;-75
2022/08/22 08:25:07;;;;;;;5.00;2.60;;;21.90;99.90;;;;;;5022008;28;20425;-75
2022/08/22 08:30:57;;;;;;;3.72;2.30;;;22.20;99.90;;;;;;5023083;28;20449;-75
2022/08/22 08:33:26;;;;;;;5.90;2.50;;;22.40;99.90;;;;;;5022000;28;20095;-75
2022/08/22 08:36:16;;;;;;;4.45;2.20;;;22.60;99.90;;;;;;5025026;28;20025;-75
2022/08/22 08:39:12;;;;;;;6.13;2.38;;;22.70;98.90;;;;;;5016848;28;20056;-75
2022/08/22 08:42:09;;;;;;;4.15;2.05;;;22.80;98.50;;;;;;5012631;28;20057;-75
2022/08/22 08:45:12;;;;;;;5.38;2.25;;;23.00;98.20;;;;;;5016931;28;20298;-75
2022/08/22 08:48:02;;;;;;;7.47;2.05;;;23.10;98.00;;;;;;5013431;28;20393;-75
2022/08/22 08:51:05;;;;;;;3.58;2.20;;;23.00;97.50;;;;;;5004749;28;20033;-75
2022/08/22 08:54:09;;;;;;;2.97;1.83;;;23.10;97.30;;;;;;5021407;28;20117;-75
2022/08/22 08:56:52;;;;;;;5.55;2.13;;;23.20;97.30;;;;;;4982175;28;20069;-75
2022/08/22 08:59:20;;;;;;;2.43;1.70;;;23.40;96.80;;;;;;4979714;28;20422;-77
2022/08/22 09:02:15;;;;;;;2.80;1.63;;;23.60;96.70;;;;;;5004233;28;20513;-78
2022/08/22 09:05:08;;;;;;;4.95;2.10;;;23.80;96.70;;;;;;5021288;28;20060;-77
2022/08/22 09:07:41;;;;;;;4.75;2.20;;;23.90;96.10;;;;;;5005540;28;20026;-76
2022/08/22 09:10:31;;;;;;;7.43;1.80;;;24.10;95.50;;;;;;5020289;28;20064;-77
2022/08/22 09:13:29;;;;;;;3.55;1.80;;;24.10;95.40;;;;;;5003098;28;20379;-77
2022/08/22 09:15:58;;;;;;;3.90;1.83;;;24.30;94.80;;;;;;5011600;28;20026;-77
2022/08/22 09:18:39;;;;;;;4.40;1.90;;;24.40;94.00;;;;;;5024219;28;20032;-77
2022/08/22 09:21:48;;;;;;;4.82;2.00;;;24.40;94.30;;;;;;5020405;28;20044;-78
2022/08/22 09:24:22;;;;;;;4.30;2.10;;;24.50;94.40;;;;;;4992149;28;20038;-78
2022/08/22 09:26:59;;;;;;;4.57;2.03;;;24.60;93.20;;;;;;5006669;28;20338;-77
2022/08/22 09:29:52;;;;;;;6.35;2.10;;;24.60;93.10;;;;;;5014353;28;20482;-78
2022/08/22 09:32:41;;;;;;;4.03;1.75;;;24.80;92.80;;;;;;5019721;28;20159;-78
2022/08/22 09:35:43;;;;;;;3.45;2.13;;;24.80;92.60;;;;;;5009211;28;20052;-77
2022/08/22 09:38:24;;;;;;;3.78;1.90;;;24.90;92.70;;;;;;5018948;28;20060;-77
2022/08/22 09:41:12;;;;;;;3.70;2.20;;;25.10;91.20;;;;;;5007229;28;20080;-77
2022/08/22 09:43:46;;;;;;;2.72;2.20;;;25.10;91.40;;;;;;5009171;28;20124;-76
2022/08/22 09:46:25;;;;;;;3.65;2.10;;;25.20;91.30;;;;;;5008020;28;20088;-77
2022/08/22 09:49:10;;;;;;;3.08;2.17;;;25.30;91.30;;;;;;5022797;28;20362;-77
2022/08/22 09:51:39;;;;;;;5.03;2.20;;;25.40;90.60;;;;;;5014765;28;20378;-75
2022/08/22 09:54:17;;;;;;;3.83;2.20;;;25.50;90.60;;;;;;5015844;28;20086;-76
2022/08/22 09:56:51;;;;;;;7.00;2.08;;;25.60;90.60;;;;;;5020752;28;20061;-77
2022/08/22 09:59:21;;;;;;;2.97;1.90;;;25.70;90.40;;;;;;5018934;28;20053;-79
2022/08/22 10:02:06;;;;;;;4.53;1.80;;;25.80;89.10;;;;;;5019400;28;20037;-78
2022/08/22 10:04:45;;;;;;;4.65;2.28;;;25.90;89.50;;;;;;5018529;28;20040;-76
2022/08/22 10:07:48;;;;;;;4.65;2.00;;;26.00;88.40;;;;;;5006267;28;20263;-77
2022/08/22 10:10:23;;;;;;;5.43;1.80;;;26.00;87.00;;;;;;5016165;28;20038;-75
2022/08/22 10:13:06;;;;;;;4.07;2.10;;;26.10;84.60;;;;;;5010299;28;20060;-76
2022/08/22 10:15:50;;;;;;;2.92;1.55;;;26.10;84.10;;;;;;5005245;28;20025;-76
2022/08/22 10:18:37;;;;;;;4.40;2.10;;;26.10;85.00;;;;;;5005481;28;20045;-76
2022/08/22 10:21:09;;;;;;;4.50;2.08;;;26.20;82.90;;;;;;5011600;28;20196;-76
2022/08/22 10:23:58;;;;;;;4.13;2.00;;;26.20;81.80;;;;;;5019134;28;20037;-76
2022/08/22 10:26:37;;;;;;;3.60;2.03;;;26.30;82.20;;;;;;5014342;28;20316;-76
2022/08/22 10:29:21;;;;;;;6.00;1.83;;;26.40;82.60;;;;;;5019244;28;20095;-76
2022/08/22 10:31:56;;;;;;;3.38;1.63;;;26.60;80.80;;;;;;5010198;28;20132;-76
2022/08/22 10:34:28;;;;;;;4.68;1.80;;;26.80;79.00;;;;;;5014940;28;20632;-76
2022/08/22 10:37:04;;;;;;;3.08;1.67;;;26.90;76.00;;;;;;5007870;28;20026;-76
2022/08/22 10:39:51;;;;;;;4.35;1.98;;;27.00;72.60;;;;;;5015245;28;20040;-76
2022/08/22 10:42:27;;;;;;;2.70;1.55;;;27.10;72.00;;;;;;4998441;28;20049;-76
2022/08/22 10:45:26;;;;;;;2.33;1.38;;;27.10;71.70;;;;;;5025206;28;20029;-76
2022/08/22 10:47:52;;;;;;;2.67;1.50;;;27.30;72.50;;;;;;4996698;28;20045;-76
2022/08/22 10:50:32;;;;;;;3.67;1.65;;;27.40;70.30;;;;;;5018459;28;20384;-76
2022/08/22 10:53:31;;;;;;;3.40;1.67;;;27.40;69.50;;;;;;5001220;28;20036;-76
2022/08/22 10:56:08;;;;;;;2.63;1.40;;;27.50;69.70;;;;;;5018719;28;20067;-76
2022/08/22 10:58:41;;;;;;;3.92;1.55;;;27.50;68.00;;;;;;5020328;28;20052;-76
2022/08/22 11:01:12;;;;;;;4.50;1.58;;;27.50;65.70;;;;;;5001394;28;20041;-76
2022/08/22 11:04:04;;;;;;;3.15;1.27;;;27.70;65.00;;;;;;5014280;28;20144;-76
2022/08/22 11:06:35;;;;;;;5.20;1.55;;;27.70;65.50;;;;;;5013046;28;20290;-76
2022/08/22 11:09:18;;;;;;;3.90;1.60;;;27.80;65.30;;;;;;5005383;28;20076;-76
2022/08/22 11:11:59;;;;;;;4.72;1.27;;;27.80;63.00;;;;;;5001766;28;20493;-77
2022/08/22 11:14:42;;;;;;;3.67;1.58;;;27.50;62.20;;;;;;5018379;28;20029;-78
2022/08/22 11:17:35;;;;;;;1.67;1.30;;;27.30;60.40;;;;;;5018401;28;20040;-78
2022/08/22 11:20:07;;;;;;;2.10;1.30;;;27.30;60.20;;;;;;5013918;28;20029;-78
2022/08/22 11:22:39;;;;;;;3.22;1.13;;;27.30;60.50;;;;;;5012067;28;20134;-77
2022/08/22 11:25:13;;;;;;;5.57;1.40;;;27.20;59.90;;;;;;5009375;28;20477;-77
2022/08/22 11:28:13;;;;;;;3.63;1.40;;;27.30;60.30;;;;;;5003850;28;20038;-77
2022/08/22 11:30:42;;;;;;;3.40;1.40;;;27.30;60.00;;;;;;5002445;28;20176;-77
2022/08/22 11:33:36;;;;;;;4.05;1.42;;;27.40;60.20;;;;;;5012884;28;20033;-77
2022/08/22 11:36:26;;;;;;;4.30;1.35;;;27.60;60.20;;;;;;5021834;28;20431;-76
2022/08/22 11:39:11;;;;;;;3.97;1.70;;;27.70;60.60;;;;;;5012918;28;20060;-76
2022/08/22 11:41:45;;;;;;;4.70;1.70;;;27.60;60.30;;;;;;5007939;28;20037;-76
2022/08/22 11:44:24;;;;;;;3.17;1.30;;;27.70;59.50;;;;;;5009974;28;20026;-76
2022/08/22 11:46:54;;;;;;;2.97;1.52;;;27.80;58.20;;;;;;5014289;28;20116;-76
2022/08/22 11:49:49;;;;;;;2.88;1.42;;;27.80;58.20;;;;;;5031923;28;20112;-76
2022/08/22 11:52:20;;;;;;;2.55;1.40;;;27.80;57.70;;;;;;5003908;28;20030;-76
2022/08/22 11:54:57;;;;;;;3.03;1.50;;;27.60;57.80;;;;;;5022040;28;20029;-76
2022/08/22 11:57:39;;;;;;;5.10;1.80;;;27.40;58.70;;;;;;5016146;28;20129;-76
2022/08/22 12:00:26;;;;;;;4.45;1.50;;;27.30;58.90;;;;;;5020156;28;20037;-75
2022/08/22 12:03:04;;;;;;;5.90;1.55;;;27.30;59.40;;;;;;5011335;28;20558;-76
2022/08/22 12:05:34;;;;;;;7.18;1.73;;;27.40;59.30;;;;;;5016104;28;20474;-76
2022/08/22 12:08:09;;;;;;;3.72;1.65;;;27.50;58.70;;;;;;5013134;28;20030;-76
2022/08/22 12:10:54;;;;;;;5.32;1.30;;;27.70;58.10;;;;;;5015848;28;20075;-76
2022/08/22 12:13:53;;;;;;;3.63;1.60;;;27.80;57.30;;;;;;5016837;28;20404;-76
2022/08/22 12:16:19;;;;;;;2.72;1.48;;;27.70;57.90;;;;;;5022751;28;20044;-75
2022/08/22 12:19:02;;;;;;;4.85;1.48;;;27.40;57.00;;;;;;5023049;28;20037;-76
2022/08/22 12:21:30;;;;;;;;;;;27.30;58.70;;;;;;5011707;28;20040;-77
2022/08/22 12:24:21;;;;;;;4.85;1.63;;;26.90;58.70;;;;;;5015637;28;20131;-76
2022/08/22 12:27:17;;;;;;;2.42;1.45;;;26.70;58.60;;;;;;5004905;28;20116;-76
2022/08/22 12:30:11;;;;;;;5.65;1.50;;;26.50;58.60;;;;;;5015068;28;20026;-76
2022/08/22 12:32:55;;;;;;;3.75;1.52;;;26.50;58.80;;;;;;5002220;28;20061;-77
2022/08/22 12:35:29;;;;;;;2.97;1.38;;;26.50;58.20;;;;;;5011845;28;20021;-76
2022/08/22 12:37:58;;;;;;;3.30;1.40;;;26.40;58.80;;;;;;5010964;28;20025;-77
2022/08/22 12:40:32;;;;;;;3.05;1.50;;;26.30;59.50;;;;;;5011387;28;20033;-77
2022/08/22 12:43:19;;;;;;;1.60;1.35;;;26.40;59.50;;;;;;5018966;28;20413;-77
2022/08/22 12:45:47;;;;;;;5.60;1.40;;;26.70;58.50;;;;;;5011742;28;20040;-78
2022/08/22 12:48:43;;;;;;;2.63;1.30;;;26.90;57.80;;;;;;5024307;28;20126;-78
2022/08/22 12:51:29;;;;;;;2.40;1.35;;;26.90;57.30;;;;;;5010464;28;20040;-77
2022/08/22 12:54:22;;;;;;;5.55;1.40;;;26.70;56.90;;;;;;5003805;28;20025;-75
2022/08/22 12:56:56;;;;;;;3.67;1.10;;;26.70;57.30;;;;;;5018983;28;20068;-75
2022/08/22 12:59:36;;;;;;;2.75;1.15;;;27.00;56.70;;;;;;5022304;28;20132;-76
2022/08/22 13:02:12;;;;;;;2.85;1.27;;;27.30;56.60;;;;;;5024463;28;20029;-76
2022/08/22 13:04:53;;;;;;;3.58;1.20;;;27.60;54.60;;;;;;5024322;28;20095;-76
2022/08/22 13:07:33;;;;;;;5.25;1.48;;;27.90;55.00;;;;;;5022036;28;20057;-77
2022/08/22 13:10:01;;;;;;;5.35;1.40;;;27.90;54.40;;;;;;5010760;28;20030;-78
2022/08/22 13:12:47;;;;;;;3.20;1.55;;;28.00;54.90;;;;;;5009526;28;20022;-77
2022/08/22 13:15:24;;;;;;;3.20;1.20;;;28.10;54.70;;;;;;5015791;28;20029;-77
2022/08/22 13:17:51;;;;;;;4.03;1.50;;;28.30;54.50;;;;;;5014583;28;20028;-77
2022/08/22 13:20:31;;;;;;;2.80;1.40;;;28.40;53.90;;;;;;5015107;28;20026;-78
2022/08/22 13:23:00;;;;;;;7.80;1.58;;;28.50;53.80;;;;;;5004001;28;20064;-77
2022/08/22 13:25:28;;;;;;;2.70;1.40;;;28.40;54.30;;;;;;5016571;28;20038;-77
2022/08/22 13:27:57;;;;;;;2.58;1.40;;;28.40;53.40;;;;;;5021863;28;20028;-77
2022/08/22 13:30:32;;;;;;;4.28;1.50;;;28.40;54.90;;;;;;5006865;28;20048;-77
2022/08/22 13:33:08;;;;;;;2.45;1.30;;;28.40;54.40;;;;;;5019308;28;20537;-77
2022/08/22 13:35:58;;;;;;;2.47;1.30;;;28.60;54.20;;;;;;5023677;28;20084;-77
2022/08/22 13:38:30;;;;;;;4.72;1.38;;;28.80;53.30;;;;;;5016119;28;20029;-77
2022/08/22 13:40:57;;;;;;;2.40;1.38;;;29.00;53.40;;;;;;5012365;28;20037;-77
2022/08/22 13:43:29;;;;;;;2.03;1.33;;;29.10;52.80;;;;;;5009336;28;20029;-77
2022/08/22 13:45:58;;;;;;;3.28;1.50;;;29.20;53.00;;;;;;5010023;28;20033;-78
2022/08/22 13:48:27;;;;;;;4.30;1.40;;;29.30;53.10;;;;;;5017461;28;20041;-78
2022/08/22 13:51:03;;;;;;;3.03;1.30;;;29.20;52.90;;;;;;5025496;28;20033;-77
2022/08/22 13:53:38;;;;;;;3.88;1.48;;;29.00;52.90;;;;;;5023942;28;20025;-78
2022/08/22 13:56:20;;;;;;;3.67;1.50;;;28.90;52.30;;;;;;5020497;28;20163;-77
2022/08/22 13:58:53;;;;;;;2.10;1.47;;;28.90;51.90;;;;;;5011334;28;20356;-76
2022/08/22 14:01:40;;;;;;;3.28;1.30;;;29.10;52.60;;;;;;4809811;28;10000576;-78